Time;durP1;ratioP1;P1;durP2;ratioP2;P2;SDS_P1;SDS_P2;PMS_P1;PMS_P2;Temp;Humidity;BMP_temperature;BMP_pressure;BME280_temperature;BME280_humidity;BME280_pressure;Samples;Min_cycle;Max_cycle;Signal;HPM_P1;HPM_P2
2023/09/11 00:00:28;;;;;;;3.20;1.33;;;22.10;1.00;;;;;;5117351;28;20448;-60
2023/09/11 00:02:55;;;;;;;3.17;1.40;;;22.10;1.00;;;;;;5116996;28;20852;-60
2023/09/11 00:05:23;;;;;;;2.70;1.50;;;22.00;1.00;;;;;;5117409;28;20420;-60
2023/09/11 00:07:51;;;;;;;2.17;1.50;;;22.00;1.00;;;;;;5117119;28;20518;-60
2023/09/11 00:10:18;;;;;;;3.00;1.50;;;21.90;1.00;;;;;;5117515;28;20420;-60
2023/09/11 00:12:45;;;;;;;2.20;1.40;;;21.80;1.00;;;;;;5117592;28;20431;-60
2023/09/11 00:15:13;;;;;;;1.90;1.20;;;21.80;99.90;;;;;;5116982;28;20432;-60
2023/09/11 00:17:40;;;;;;;1.70;1.30;;;21.80;99.90;;;;;;5116855;28;20778;-60
2023/09/11 00:20:10;;;;;;;2.40;1.50;;;21.70;1.00;;;;;;5116814;28;20430;-60
2023/09/11 00:22:38;;;;;;;1.80;1.42;;;21.70;1.00;;;;;;5117067;28;20460;-60
2023/09/11 00:25:07;;;;;;;2.85;1.50;;;21.70;49.40;;;;;;5116694;28;20499;-60
2023/09/11 00:27:34;;;;;;;3.13;1.50;;;21.70;99.90;;;;;;5116927;28;20430;-60
2023/09/11 00:30:01;;;;;;;2.60;1.60;;;21.70;99.90;;;;;;5116975;28;20415;-60
2023/09/11 00:32:28;;;;;;;2.70;1.50;;;21.70;99.90;;;;;;5116951;28;20514;-60
2023/09/11 00:34:55;;;;;;;2.60;1.42;;;21.70;99.90;;;;;;5116644;28;20882;-60
2023/09/11 00:37:23;;;;;;;2.58;1.80;;;21.70;44.60;;;;;;5116489;28;20728;-60
2023/09/11 00:39:51;;;;;;;2.40;1.80;;;21.70;1.00;;;;;;5116712;28;20424;-60
2023/09/11 00:42:18;;;;;;;2.67;1.60;;;21.60;1.00;;;;;;5114167;28;20434;-59
2023/09/11 00:44:45;;;;;;;3.10;1.45;;;21.60;1.00;;;;;;5108993;28;20415;-60
2023/09/11 00:47:13;;;;;;;2.60;1.50;;;21.60;99.90;;;;;;5116173;28;20485;-60
2023/09/11 00:49:41;;;;;;;2.40;1.50;;;21.50;99.90;;;;;;5116422;28;20435;-60
2023/09/11 00:52:08;;;;;;;2.30;1.25;;;21.50;99.90;;;;;;5116462;28;20886;-61
2023/09/11 00:54:35;;;;;;;3.55;1.58;;;21.50;1.00;;;;;;5115651;28;20434;-60
2023/09/11 00:57:05;;;;;;;2.90;1.50;;;21.50;99.90;;;;;;5115724;28;20416;-60
2023/09/11 00:59:33;;;;;;;1.98;1.73;;;21.50;99.90;;;;;;5116612;28;20415;-60
2023/09/11 01:02:01;;;;;;;2.05;1.40;;;21.50;1.00;;;;;;5116190;28;20609;-60
2023/09/11 01:04:29;;;;;;;1.83;1.45;;;21.50;1.00;;;;;;5115677;28;20518;-60
2023/09/11 01:06:56;;;;;;;1.85;1.33;;;21.50;99.90;;;;;;5114877;28;20415;-60
2023/09/11 01:09:23;;;;;;;2.20;1.50;;;21.40;1.00;;;;;;5115221;28;20412;-60
2023/09/11 01:11:51;;;;;;;2.97;1.40;;;21.40;1.00;;;;;;5115703;28;20416;-60
2023/09/11 01:14:19;;;;;;;1.77;1.20;;;21.40;99.90;;;;;;5115089;28;20443;-60
2023/09/11 01:16:53;;;;;;;1.90;1.50;;;21.40;99.90;;;;;;5114803;28;20839;-60
2023/09/11 01:19:42;;;;;;;2.10;1.30;;;21.40;48.40;;;;;;5114878;28;20755;-60
2023/09/11 01:22:33;;;;;;;1.70;1.60;;;21.40;99.90;;;;;;5115716;28;20484;-60
2023/09/11 01:25:21;;;;;;;3.13;1.50;;;21.50;99.90;;;;;;5115950;28;20493;-60
2023/09/11 01:28:09;;;;;;;2.20;1.30;;;21.40;1.00;;;;;;5115959;28;20455;-60
2023/09/11 01:30:40;;;;;;;3.05;1.30;;;21.40;25.00;;;;;;5115437;28;20453;-60
2023/09/11 01:33:07;;;;;;;3.10;1.50;;;21.40;99.90;;;;;;5115715;28;20459;-59
2023/09/11 01:35:34;;;;;;;2.50;1.50;;;21.40;41.50;;;;;;5115680;28;20432;-60
2023/09/11 01:38:02;;;;;;;3.25;1.70;;;21.40;10.50;;;;;;5115540;28;20827;-60
2023/09/11 01:40:33;;;;;;;2.80;1.50;;;21.40;1.00;;;;;;5115431;28;20431;-60
2023/09/11 01:43:05;;;;;;;3.00;1.67;;;21.40;1.00;;;;;;5114889;28;20510;-60
2023/09/11 01:45:33;;;;;;;2.20;1.40;;;21.30;1.00;;;;;;5115237;28;20819;-60
2023/09/11 01:48:04;;;;;;;2.28;1.40;;;21.20;99.90;;;;;;5115632;28;20451;-60
2023/09/11 01:50:32;;;;;;;4.30;1.40;;;21.20;99.90;;;;;;5115803;28;20451;-62
2023/09/11 01:53:00;;;;;;;2.10;1.50;;;21.20;1.00;;;;;;5114266;28;20913;-60
2023/09/11 01:55:28;;;;;;;2.90;1.60;;;21.20;1.00;;;;;;5115622;28;20428;-60
2023/09/11 01:57:56;;;;;;;1.60;1.20;;;21.20;1.00;;;;;;5115282;28;20426;-60
2023/09/11 02:00:24;;;;;;;3.05;1.65;;;21.20;1.00;;;;;;5115431;28;20441;-60
2023/09/11 02:02:55;;;;;;;2.65;1.73;;;21.20;1.00;;;;;;5114742;28;20416;-60
2023/09/11 02:05:23;;;;;;;2.42;1.70;;;21.10;1.00;;;;;;5115394;28;20423;-60
2023/09/11 02:07:51;;;;;;;2.25;1.45;;;21.10;74.80;;;;;;5116062;28;20424;-60
2023/09/11 02:10:18;;;;;;;2.30;1.50;;;21.10;99.90;;;;;;5114854;28;20424;-60
2023/09/11 02:12:46;;;;;;;2.90;1.73;;;21.00;99.90;;;;;;5114362;28;20416;-60
2023/09/11 02:15:13;;;;;;;2.38;1.40;;;21.00;99.90;;;;;;5113931;28;20420;-60
2023/09/11 02:17:40;;;;;;;1.80;1.40;;;21.00;99.90;;;;;;5110705;28;20416;-60
2023/09/11 02:20:08;;;;;;;2.30;1.30;;;21.10;99.90;;;;;;5119577;28;20423;-60
2023/09/11 02:22:37;;;;;;;2.15;1.30;;;21.00;99.90;;;;;;5119218;28;20854;-60
2023/09/11 02:25:05;;;;;;;2.35;1.40;;;21.00;53.90;;;;;;5119206;28;20510;-60
2023/09/11 02:27:32;;;;;;;3.25;1.70;;;21.00;99.90;;;;;;5119327;28;20420;-60
2023/09/11 02:29:59;;;;;;;2.75;1.50;;;20.90;99.90;;;;;;5119720;28;20685;-60
2023/09/11 02:32:26;;;;;;;1.70;1.20;;;20.90;99.90;;;;;;5119083;28;20426;-60
2023/09/11 02:34:53;;;;;;;2.00;1.30;;;20.90;99.90;;;;;;5119278;28;20467;-60
2023/09/11 02:37:21;;;;;;;2.45;1.50;;;20.90;1.00;;;;;;5119312;28;20442;-60
2023/09/11 02:39:49;;;;;;;3.33;1.67;;;20.80;1.00;;;;;;5119219;28;20481;-60
2023/09/11 02:42:16;;;;;;;2.20;1.60;;;20.80;1.00;;;;;;5118431;28;20553;-60
2023/09/11 02:44:43;;;;;;;2.30;1.50;;;20.70;1.00;;;;;;5118828;28;20803;-60
2023/09/11 02:47:11;;;;;;;2.20;1.90;;;20.70;1.00;;;;;;5118919;28;20423;-60
2023/09/11 02:49:38;;;;;;;2.03;1.80;;;20.70;1.00;;;;;;5119021;28;20424;-60
2023/09/11 02:52:05;;;;;;;3.60;1.70;;;20.70;40.90;;;;;;5119038;28;20811;-60
2023/09/11 02:54:32;;;;;;;2.17;1.60;;;20.80;99.90;;;;;;5119119;28;20434;-61
2023/09/11 02:57:01;;;;;;;2.10;1.60;;;20.90;38.00;;;;;;5118667;28;20431;-61
2023/09/11 02:59:28;;;;;;;2.20;1.63;;;20.90;1.00;;;;;;5118783;28;20434;-60
2023/09/11 03:01:55;;;;;;;2.40;1.70;;;20.90;1.00;;;;;;5118932;28;20749;-60
2023/09/11 03:04:22;;;;;;;2.70;1.70;;;20.90;1.00;;;;;;5118281;28;20420;-60
2023/09/11 03:06:49;;;;;;;2.33;1.58;;;20.80;1.00;;;;;;5118538;28;20426;-60
2023/09/11 03:09:17;;;;;;;3.33;1.60;;;20.60;1.00;;;;;;5118565;28;20845;-60
2023/09/11 03:11:44;;;;;;;2.03;1.70;;;20.40;99.90;;;;;;5118556;28;20408;-60
2023/09/11 03:14:17;;;;;;;3.05;1.90;;;20.30;99.90;;;;;;5118317;28;20485;-60
2023/09/11 03:16:44;;;;;;;3.90;1.75;;;20.30;99.90;;;;;;5117763;28;20754;-60
2023/09/11 03:19:11;;;;;;;2.72;1.85;;;20.30;99.90;;;;;;5117316;28;20481;-59
2023/09/11 03:21:38;;;;;;;3.03;1.70;;;20.30;99.90;;;;;;5113886;28;20422;-59
2023/09/11 03:24:06;;;;;;;3.20;1.80;;;20.40;99.90;;;;;;5113607;28;20731;-61
2023/09/11 03:26:33;;;;;;;2.70;1.60;;;20.40;99.90;;;;;;5113271;28;20436;-59
2023/09/11 03:29:00;;;;;;;2.97;1.67;;;20.50;99.90;;;;;;5112967;28;20415;-60
2023/09/11 03:31:30;;;;;;;2.50;1.60;;;20.50;99.90;;;;;;5114268;28;20450;-60
2023/09/11 03:33:57;;;;;;;2.40;2.03;;;20.50;99.90;;;;;;5112830;28;20847;-60
2023/09/11 03:36:24;;;;;;;2.30;1.80;;;20.50;99.90;;;;;;5115625;28;20434;-60
2023/09/11 03:38:51;;;;;;;2.60;1.70;;;20.40;99.90;;;;;;5115085;28;20417;-59
2023/09/11 03:41:18;;;;;;;2.30;1.60;;;20.30;99.90;;;;;;5116769;28;20419;-59
2023/09/11 03:43:45;;;;;;;2.90;1.90;;;20.30;1.00;;;;;;5116205;28;20538;-59
2023/09/11 03:46:13;;;;;;;3.50;1.92;;;20.30;1.00;;;;;;5117006;28;20412;-60
2023/09/11 03:48:42;;;;;;;2.88;1.90;;;20.30;1.00;;;;;;5112902;28;20430;-60
2023/09/11 03:51:09;;;;;;;2.88;1.80;;;20.30;99.90;;;;;;5114151;28;20738;-59
2023/09/11 03:53:42;;;;;;;3.60;1.80;;;20.30;99.90;;;;;;5117833;28;20416;-60
2023/09/11 03:56:10;;;;;;;2.33;1.60;;;20.30;99.90;;;;;;5117288;28;20432;-60
2023/09/11 03:58:37;;;;;;;3.60;1.90;;;20.40;99.90;;;;;;5117076;28;20412;-60
2023/09/11 04:01:04;;;;;;;2.47;1.80;;;20.50;99.90;;;;;;5116293;28;20514;-59
2023/09/11 04:03:31;;;;;;;2.60;1.90;;;20.60;99.90;;;;;;5115670;28;20493;-60
2023/09/11 04:06:00;;;;;;;2.60;2.00;;;20.60;99.90;;;;;;5115455;28;20907;-60
2023/09/11 04:08:27;;;;;;;3.20;1.90;;;20.60;99.90;;;;;;5116973;28;20424;-60
2023/09/11 04:10:54;;;;;;;2.60;1.60;;;20.50;99.90;;;;;;5116790;28;20427;-60
2023/09/11 04:13:21;;;;;;;3.78;2.30;;;20.50;99.90;;;;;;5116356;28;20427;-60
2023/09/11 04:15:48;;;;;;;3.20;1.90;;;20.40;99.90;;;;;;5115259;28;20861;-60
2023/09/11 04:18:16;;;;;;;5.75;2.22;;;20.30;99.90;;;;;;5114924;28;20477;-60
2023/09/11 04:20:43;;;;;;;2.85;1.70;;;20.30;99.90;;;;;;5115366;28;20804;-60
2023/09/11 04:23:11;;;;;;;2.92;2.00;;;20.20;99.90;;;;;;5114541;28;20439;-59
2023/09/11 04:25:39;;;;;;;3.03;2.08;;;20.20;99.90;;;;;;5114598;28;20496;-59
2023/09/11 04:28:06;;;;;;;3.15;1.52;;;20.10;99.90;;;;;;5113665;28;20420;-59
2023/09/11 04:30:34;;;;;;;2.27;1.60;;;20.10;99.90;;;;;;5114361;28;20420;-60
2023/09/11 04:33:02;;;;;;;3.95;1.73;;;20.10;99.90;;;;;;5114632;28;20724;-60
2023/09/11 04:35:29;;;;;;;1.80;1.70;;;20.10;1.00;;;;;;5115029;28;20527;-59
2023/09/11 04:37:57;;;;;;;2.42;1.67;;;20.10;99.90;;;;;;5116552;28;20428;-59
2023/09/11 04:40:25;;;;;;;4.00;1.60;;;20.00;1.00;;;;;;5112468;28;20420;-59
2023/09/11 04:42:52;;;;;;;2.17;1.70;;;19.90;99.90;;;;;;5111863;28;20427;-60
2023/09/11 04:45:19;;;;;;;2.22;1.80;;;19.90;1.00;;;;;;5112071;28;20408;-58
2023/09/11 04:47:47;;;;;;;2.60;2.03;;;19.90;1.00;;;;;;5112337;28;20491;-59
2023/09/11 04:50:14;;;;;;;3.00;1.90;;;19.80;1.00;;;;;;5110613;28;20416;-58
2023/09/11 04:52:41;;;;;;;3.60;2.10;;;19.80;1.00;;;;;;5110753;28;20431;-60
2023/09/11 04:55:09;;;;;;;3.45;2.10;;;19.80;1.00;;;;;;5112403;28;20853;-60
2023/09/11 04:57:39;;;;;;;2.60;2.22;;;19.80;1.00;;;;;;5113644;28;20527;-60
2023/09/11 05:00:10;;;;;;;2.42;1.98;;;19.90;1.00;;;;;;5115433;28;20447;-62
2023/09/11 05:02:40;;;;;;;3.23;2.10;;;20.00;1.00;;;;;;5115469;28;20823;-61
2023/09/11 05:05:07;;;;;;;4.10;1.60;;;20.00;1.00;;;;;;5114830;28;20423;-60
2023/09/11 05:07:34;;;;;;;2.53;2.05;;;20.10;99.90;;;;;;5113985;28;20845;-59
2023/09/11 05:10:05;;;;;;;3.30;1.70;;;20.10;99.90;;;;;;5112483;28;20420;-60
2023/09/11 05:12:32;;;;;;;2.10;1.48;;;20.10;1.00;;;;;;5113413;28;20927;-59
2023/09/11 05:15:01;;;;;;;3.17;1.90;;;20.10;1.00;;;;;;5113309;28;20417;-60
2023/09/11 05:17:28;;;;;;;2.22;1.70;;;20.20;1.00;;;;;;5113506;28;20471;-59
2023/09/11 05:19:55;;;;;;;2.35;1.70;;;20.30;99.90;;;;;;5112517;28;20416;-60
2023/09/11 05:22:22;;;;;;;2.70;1.40;;;20.30;99.90;;;;;;5114160;28;20420;-60
2023/09/11 05:24:49;;;;;;;2.85;1.73;;;20.40;99.90;;;;;;5112680;28;20707;-61
2023/09/11 05:27:17;;;;;;;3.17;2.30;;;20.50;99.90;;;;;;5113673;28;20407;-61
2023/09/11 05:29:44;;;;;;;2.90;2.00;;;20.50;99.90;;;;;;5112762;28;20424;-61
2023/09/11 05:32:13;;;;;;;2.80;2.22;;;20.60;99.90;;;;;;5114357;28;20735;-60
2023/09/11 05:34:40;;;;;;;3.70;2.20;;;20.50;99.90;;;;;;5112012;28;20465;-60
2023/09/11 05:37:07;;;;;;;4.22;1.88;;;20.60;99.90;;;;;;5114433;28;20434;-61
2023/09/11 05:39:34;;;;;;;2.42;1.52;;;20.60;99.90;;;;;;5114009;28;20427;-60
2023/09/11 05:42:01;;;;;;;4.18;2.03;;;20.60;99.90;;;;;;5111790;28;20446;-60
2023/09/11 05:44:28;;;;;;;2.93;2.00;;;20.60;99.90;;;;;;5111014;28;20764;-60
2023/09/11 05:46:56;;;;;;;2.50;1.70;;;20.60;99.90;;;;;;5110909;28;20893;-60
2023/09/11 05:49:25;;;;;;;2.95;2.10;;;20.60;99.90;;;;;;5112207;28;20575;-59
2023/09/11 05:51:52;;;;;;;2.90;1.90;;;20.60;99.90;;;;;;5111512;28;20428;-59
2023/09/11 05:54:19;;;;;;;3.10;1.80;;;20.70;99.90;;;;;;5112313;28;20445;-59
2023/09/11 05:56:46;;;;;;;2.80;2.05;;;20.70;99.90;;;;;;5110723;28;20435;-60
2023/09/11 05:59:14;;;;;;;3.08;1.70;;;20.70;99.90;;;;;;5112088;28;20423;-60
2023/09/11 06:01:42;;;;;;;2.45;1.67;;;20.80;99.90;;;;;;5111467;28;20855;-60
2023/09/11 06:04:09;;;;;;;2.92;2.00;;;20.90;99.90;;;;;;5111508;28;20420;-60
2023/09/11 06:06:39;;;;;;;5.60;2.53;;;20.90;99.90;;;;;;5112958;28;20463;-59
2023/09/11 06:09:08;;;;;;;3.40;2.60;;;20.90;99.90;;;;;;5111328;28;20416;-60
2023/09/11 06:11:35;;;;;;;3.72;2.03;;;20.90;42.20;;;;;;5109564;28;20426;-60
2023/09/11 06:14:02;;;;;;;2.88;2.08;;;20.90;99.90;;;;;;5107874;28;20416;-60
2023/09/11 06:16:30;;;;;;;3.63;2.60;;;20.90;99.90;;;;;;5106046;28;20517;-60
2023/09/11 06:18:58;;;;;;;3.78;2.38;;;20.90;99.90;;;;;;5107765;28;20427;-60
2023/09/11 06:21:25;;;;;;;3.30;2.10;;;20.90;99.90;;;;;;5108477;28;20435;-60
2023/09/11 06:23:54;;;;;;;3.67;2.50;;;21.10;1.00;;;;;;5107866;28;20508;-60
2023/09/11 06:26:21;;;;;;;3.22;2.60;;;21.10;1.00;;;;;;5098783;28;20462;-60
2023/09/11 06:28:48;;;;;;;3.03;2.30;;;21.20;1.00;;;;;;5110539;28;20839;-60
2023/09/11 06:31:15;;;;;;;3.70;2.90;;;21.10;1.00;;;;;;5109097;28;20420;-60
2023/09/11 06:33:44;;;;;;;2.90;1.90;;;21.00;1.00;;;;;;5112762;28;20447;-59
2023/09/11 06:36:11;;;;;;;2.40;2.20;;;21.20;1.00;;;;;;5112995;28;20495;-59
2023/09/11 06:38:38;;;;;;;3.17;2.30;;;21.30;1.00;;;;;;5108826;28;20474;-58
2023/09/11 06:41:06;;;;;;;3.55;2.08;;;21.40;1.00;;;;;;5110866;28;20426;-59
2023/09/11 06:43:34;;;;;;;2.63;2.37;;;21.40;99.90;;;;;;5110646;28;20427;-59
2023/09/11 06:46:01;;;;;;;3.50;2.08;;;21.50;99.90;;;;;;5109593;28;20441;-58
2023/09/11 06:48:28;;;;;;;3.20;2.35;;;21.50;24.80;;;;;;5108769;28;20849;-58
2023/09/11 06:50:55;;;;;;;3.97;2.33;;;21.40;47.30;;;;;;5109305;28;20502;-58
2023/09/11 06:53:23;;;;;;;3.87;2.20;;;21.30;99.90;;;;;;5106586;28;21010;-58
2023/09/11 06:55:51;;;;;;;3.50;3.20;;;21.30;99.90;;;;;;5108515;28;20463;-59
2023/09/11 06:58:20;;;;;;;3.70;2.23;;;21.30;99.90;;;;;;5108930;28;20432;-58
2023/09/11 07:00:48;;;;;;;4.70;2.63;;;21.50;99.90;;;;;;5107723;28;20459;-58
2023/09/11 07:03:16;;;;;;;2.03;1.60;;;21.70;1.00;;;;;;5109637;28;20415;-59
2023/09/11 07:05:44;;;;;;;3.90;2.10;;;21.80;1.00;;;;;;5107482;28;20418;-58
2023/09/11 07:08:11;;;;;;;2.60;1.92;;;21.90;99.90;;;;;;5115175;28;20635;-58
2023/09/11 07:10:39;;;;;;;2.60;1.67;;;21.90;99.90;;;;;;5114817;28;20440;-58
2023/09/11 07:13:06;;;;;;;4.78;2.72;;;21.90;27.80;;;;;;5114708;28;20427;-58
2023/09/11 07:15:35;;;;;;;3.75;2.40;;;22.00;1.00;;;;;;5115061;28;20419;-58
2023/09/11 07:18:02;;;;;;;3.60;1.90;;;22.00;1.00;;;;;;5114889;28;20436;-59
2023/09/11 07:20:29;;;;;;;3.50;2.47;;;22.00;1.00;;;;;;5114334;28;20460;-58
2023/09/11 07:22:56;;;;;;;3.55;2.13;;;22.10;1.00;;;;;;5113752;28;20420;-59
2023/09/11 07:25:23;;;;;;;2.30;1.60;;;22.10;1.00;;;;;;5112514;28;20419;-59
2023/09/11 07:27:51;;;;;;;2.40;1.90;;;22.20;1.00;;;;;;5113447;28;20468;-59
2023/09/11 07:30:18;;;;;;;3.30;2.00;;;22.30;99.90;;;;;;5113180;28;20490;-59
2023/09/11 07:32:46;;;;;;;2.30;1.70;;;22.40;99.90;;;;;;5114647;28;20421;-58
2023/09/11 07:35:14;;;;;;;2.90;2.10;;;22.50;99.90;;;;;;5114803;28;20427;-61
2023/09/11 07:37:41;;;;;;;4.45;2.40;;;22.50;1.00;;;;;;5115051;28;20432;-60
2023/09/11 07:40:09;;;;;;;2.60;1.60;;;22.60;1.00;;;;;;5105351;28;20459;-59
2023/09/11 07:42:37;;;;;;;2.40;1.92;;;22.80;1.00;;;;;;5114294;28;20529;-60
2023/09/11 07:45:04;;;;;;;3.53;2.40;;;22.90;99.90;;;;;;5114284;28;20422;-60
2023/09/11 07:47:31;;;;;;;2.55;2.00;;;23.10;99.90;;;;;;5115162;28;20487;-62
2023/09/11 07:50:00;;;;;;;3.05;2.53;;;23.20;1.00;;;;;;5114019;28;20428;-62
2023/09/11 07:52:27;;;;;;;2.60;2.20;;;23.20;1.00;;;;;;5113268;28;20692;-61
2023/09/11 07:54:54;;;;;;;4.68;2.35;;;23.20;1.00;;;;;;5113768;28;20518;-61
2023/09/11 07:57:22;;;;;;;3.33;1.70;;;23.10;1.00;;;;;;5113964;28;20420;-59
2023/09/11 07:59:49;;;;;;;2.88;2.13;;;23.20;1.00;;;;;;5114348;28;20415;-59
2023/09/11 08:02:16;;;;;;;4.43;2.08;;;23.30;1.00;;;;;;5113227;28;20422;-59
2023/09/11 08:04:43;;;;;;;3.20;2.20;;;23.40;1.00;;;;;;5113613;28;20869;-58
2023/09/11 08:07:12;;;;;;;2.60;2.40;;;23.50;1.00;;;;;;5113713;28;20440;-59
2023/09/11 08:09:39;;;;;;;2.90;2.10;;;23.60;1.00;;;;;;5114523;28;20430;-59
2023/09/11 08:12:06;;;;;;;4.60;2.30;;;23.80;99.90;;;;;;5114246;28;20446;-59
2023/09/11 08:14:34;;;;;;;3.70;2.25;;;23.90;99.90;;;;;;5113671;28;20420;-59
2023/09/11 08:17:01;;;;;;;3.20;2.60;;;23.90;99.90;;;;;;5113708;28;20522;-59
2023/09/11 08:19:28;;;;;;;3.90;2.70;;;23.90;99.90;;;;;;5114274;28;20492;-59
2023/09/11 08:21:56;;;;;;;3.45;2.35;;;24.00;99.90;;;;;;5110510;28;20771;-60
2023/09/11 08:24:25;;;;;;;3.65;2.67;;;24.10;99.90;;;;;;5115054;27;20495;-58
2023/09/11 08:26:52;;;;;;;2.70;2.30;;;24.20;82.40;;;;;;5106008;27;20417;-58
2023/09/11 08:29:20;;;;;;;3.38;2.30;;;24.20;6.80;;;;;;5113256;28;20420;-59
2023/09/11 08:31:48;;;;;;;3.00;2.10;;;24.30;1.00;;;;;;5092913;28;20440;-58
2023/09/11 08:34:15;;;;;;;4.65;2.28;;;24.30;1.00;;;;;;5103957;27;20429;-59
2023/09/11 08:36:43;;;;;;;6.55;2.20;;;24.40;1.00;;;;;;5113383;28;20446;-60
2023/09/11 08:39:10;;;;;;;4.40;1.90;;;24.50;1.00;;;;;;5112396;28;20536;-60
2023/09/11 08:41:40;;;;;;;3.33;1.83;;;24.60;1.00;;;;;;5113049;28;20423;-60
2023/09/11 08:44:07;;;;;;;3.47;2.00;;;24.60;1.00;;;;;;5104071;28;20765;-60
2023/09/11 08:46:40;;;;;;;3.90;2.30;;;24.60;1.00;;;;;;5113976;27;21157;-60
2023/09/11 08:49:11;;;;;;;3.75;2.00;;;24.80;1.00;;;;;;5110448;28;20436;-60
2023/09/11 08:51:43;;;;;;;4.90;2.10;;;24.90;1.00;;;;;;5111466;28;20736;-59
2023/09/11 08:54:11;;;;;;;2.90;1.98;;;25.00;1.00;;;;;;5110770;28;20991;-58
2023/09/11 08:56:42;;;;;;;2.50;2.20;;;25.10;1.00;;;;;;5106244;28;20511;-61
2023/09/11 08:59:11;;;;;;;2.80;2.20;;;25.10;1.00;;;;;;5113011;28;20424;-62
2023/09/11 09:01:39;;;;;;;3.60;2.13;;;25.20;1.00;;;;;;5111501;28;20494;-61
2023/09/11 09:04:06;;;;;;;3.10;2.70;;;25.20;1.00;;;;;;5110947;28;20534;-61
2023/09/11 09:06:35;;;;;;;2.75;1.80;;;25.40;1.00;;;;;;5112396;28;20908;-61
2023/09/11 09:09:03;;;;;;;3.60;2.40;;;25.40;1.00;;;;;;5111244;28;20412;-61
2023/09/11 09:11:31;;;;;;;3.08;2.10;;;25.50;1.00;;;;;;5111191;28;20531;-62
2023/09/11 09:14:00;;;;;;;2.72;2.10;;;25.70;99.90;;;;;;5111335;28;20540;-60
2023/09/11 09:16:27;;;;;;;2.60;2.40;;;25.70;99.90;;;;;;5112708;28;20420;-60
2023/09/11 09:18:55;;;;;;;4.28;2.30;;;25.70;99.90;;;;;;5111883;28;20434;-61
2023/09/11 09:21:25;;;;;;;2.70;1.90;;;25.80;99.90;;;;;;5112900;28;20813;-61
2023/09/11 09:23:53;;;;;;;3.30;2.20;;;25.80;99.90;;;;;;5112339;28;20797;-60
2023/09/11 09:26:23;;;;;;;4.57;2.00;;;25.90;99.90;;;;;;5109955;27;20436;-62
2023/09/11 09:28:51;;;;;;;3.10;2.00;;;26.00;99.90;;;;;;5108102;28;20522;-61
2023/09/11 09:31:26;;;;;;;2.60;1.90;;;26.10;99.90;;;;;;5110700;28;20436;-60
2023/09/11 09:33:55;;;;;;;2.90;1.77;;;26.20;99.90;;;;;;5109987;28;20424;-60
2023/09/11 09:36:23;;;;;;;2.30;1.80;;;26.30;99.90;;;;;;5109452;28;20428;-60
2023/09/11 09:38:51;;;;;;;3.00;1.95;;;26.50;99.90;;;;;;5110057;28;20428;-60
2023/09/11 09:41:20;;;;;;;3.50;2.00;;;26.60;99.90;;;;;;5110271;28;20648;-60
2023/09/11 09:43:53;;;;;;;3.03;2.30;;;26.70;99.90;;;;;;5110132;28;20432;-62
2023/09/11 09:46:23;;;;;;;2.17;1.80;;;26.80;99.90;;;;;;5108628;28;20425;-62
2023/09/11 09:51:46;;;;;;;3.13;1.92;;;27.10;69.50;;;;;;5102866;28;20552;-60
2023/09/11 09:54:13;;;;;;;2.67;1.60;;;27.20;20.70;;;;;;5109200;28;20692;-60
2023/09/11 09:56:40;;;;;;;2.70;1.90;;;27.20;9.00;;;;;;5109450;28;20472;-60
2023/09/11 09:59:08;;;;;;;2.90;2.00;;;27.30;1.00;;;;;;5108704;28;20432;-60
2023/09/11 10:01:45;;;;;;;2.33;1.60;;;27.50;1.00;;;;;;5101246;28;20412;-60
2023/09/11 10:04:17;;;;;;;3.00;2.10;;;27.70;1.00;;;;;;5111140;28;20489;-60
2023/09/11 10:06:52;;;;;;;3.20;1.70;;;28.00;1.00;;;;;;5109370;28;20699;-60
2023/09/11 10:09:21;;;;;;;2.70;1.70;;;28.30;1.00;;;;;;5110179;28;20416;-60
2023/09/11 10:11:51;;;;;;;4.57;2.17;;;28.60;1.00;;;;;;5112599;28;20479;-61
2023/09/11 10:14:20;;;;;;;3.00;2.10;;;28.80;1.00;;;;;;5111128;28;20463;-60
2023/09/11 10:16:48;;;;;;;2.70;1.90;;;28.80;1.00;;;;;;5110448;28;20428;-61
2023/09/11 10:19:17;;;;;;;2.88;1.50;;;28.90;1.00;;;;;;5112992;28;20432;-59
2023/09/11 10:21:44;;;;;;;2.22;1.73;;;29.20;1.00;;;;;;5110962;28;20734;-60
2023/09/11 10:24:13;;;;;;;2.60;1.97;;;29.40;1.00;;;;;;5111002;28;20420;-60
2023/09/11 10:26:45;;;;;;;3.40;1.73;;;29.50;1.00;;;;;;5111182;28;20696;-59
2023/09/11 10:29:18;;;;;;;2.95;1.70;;;29.70;1.00;;;;;;5109649;28;20428;-60
2023/09/11 10:31:54;;;;;;;2.92;1.60;;;29.80;1.00;;;;;;5110799;28;20456;-59
2023/09/11 10:34:24;;;;;;;3.28;1.52;;;29.90;1.00;;;;;;5108940;28;20606;-59
2023/09/11 10:36:56;;;;;;;2.83;1.70;;;30.00;1.00;;;;;;5110130;28;20656;-59
2023/09/11 10:39:23;;;;;;;2.50;1.35;;;30.20;1.00;;;;;;5110449;28;20432;-59
2023/09/11 10:41:51;;;;;;;2.45;1.55;;;30.50;1.00;;;;;;5115263;28;20423;-60
2023/09/11 10:44:18;;;;;;;2.08;1.50;;;30.50;1.00;;;;;;5110850;28;20428;-60
2023/09/11 10:46:50;;;;;;;3.20;1.30;;;30.60;1.00;;;;;;5112430;28;20458;-60
2023/09/11 10:49:18;;;;;;;2.22;1.30;;;30.70;1.00;;;;;;5111189;28;20596;-60
2023/09/11 10:51:48;;;;;;;1.60;1.30;;;30.90;1.00;;;;;;5123980;27;20499;-59
2023/09/11 10:54:16;;;;;;;3.10;1.58;;;30.90;1.00;;;;;;5134055;27;20825;-60
2023/09/11 10:56:44;;;;;;;2.30;1.40;;;30.90;1.00;;;;;;5119141;27;20423;-60
2023/09/11 10:59:12;;;;;;;1.90;1.30;;;31.00;1.00;;;;;;5113050;28;20435;-60
2023/09/11 11:01:39;;;;;;;3.38;1.30;;;31.10;1.00;;;;;;5112963;28;20823;-59
2023/09/11 11:04:08;;;;;;;2.55;1.40;;;31.30;1.00;;;;;;5113460;28;20431;-59
2023/09/11 11:06:35;;;;;;;2.03;1.45;;;31.40;1.00;;;;;;5115284;28;20424;-59
2023/09/11 11:09:24;;;;;;;2.85;1.65;;;31.70;1.00;;;;;;5116036;28;20474;-59
2023/09/11 11:11:51;;;;;;;2.50;1.67;;;31.40;1.00;;;;;;5107709;28;20473;-59
2023/09/11 11:14:21;;;;;;;2.60;1.40;;;31.60;1.00;;;;;;5113104;28;20511;-58
2023/09/11 11:16:56;;;;;;;2.30;1.50;;;31.70;1.00;;;;;;5114850;28;20759;-60
2023/09/11 11:19:28;;;;;;;1.70;1.50;;;31.40;1.00;;;;;;5113792;28;20431;-60
2023/09/11 11:21:56;;;;;;;2.28;1.70;;;31.60;1.00;;;;;;5114893;28;20771;-61
2023/09/11 11:24:25;;;;;;;2.40;1.70;;;31.50;1.00;;;;;;5112824;28;20774;-62
2023/09/11 11:26:57;;;;;;;2.63;1.67;;;31.60;1.00;;;;;;5114619;28;20415;-62
2023/09/11 11:29:24;;;;;;;2.10;1.30;;;31.80;1.00;;;;;;5113275;28;20426;-62
2023/09/11 11:31:57;;;;;;;1.80;1.30;;;31.60;1.00;;;;;;5113202;28;20858;-62
2023/09/11 11:34:28;;;;;;;3.22;1.70;;;31.70;1.00;;;;;;5107471;28;20455;-63
2023/09/11 11:36:58;;;;;;;1.52;1.20;;;31.80;1.00;;;;;;5112756;28;20803;-61
2023/09/11 11:39:28;;;;;;;1.50;1.25;;;31.80;1.00;;;;;;5110752;28;20427;-63
2023/09/11 11:41:56;;;;;;;2.30;1.30;;;32.00;1.00;;;;;;5113817;28;20416;-61
2023/09/11 11:44:26;;;;;;;1.50;1.30;;;32.10;1.00;;;;;;5112127;28;20464;-62
2023/09/11 11:46:54;;;;;;;3.22;1.30;;;32.10;1.00;;;;;;5112797;28;20885;-62
2023/09/11 11:49:23;;;;;;;1.50;1.30;;;32.30;1.00;;;;;;5112748;28;20515;-63
2023/09/11 11:51:50;;;;;;;1.70;1.20;;;32.50;1.00;;;;;;5114615;28;20415;-62
2023/09/11 11:54:26;;;;;;;1.60;1.20;;;32.70;1.00;;;;;;5114853;28;20827;-62
2023/09/11 11:56:58;;;;;;;2.90;1.10;;;32.80;1.00;;;;;;5110705;28;20416;-62
2023/09/11 11:59:30;;;;;;;1.92;1.10;;;32.90;1.00;;;;;;5114281;28;20594;-63
2023/09/11 12:01:58;;;;;;;1.50;1.10;;;33.00;1.00;;;;;;5115019;28;20493;-62
2023/09/11 12:04:25;;;;;;;2.20;1.50;;;32.90;1.00;;;;;;5116044;28;20415;-64
2023/09/11 12:06:54;;;;;;;1.90;1.27;;;32.80;1.00;;;;;;5114615;28;20919;-64
2023/09/11 12:09:22;;;;;;;2.05;1.30;;;32.40;1.00;;;;;;5097698;28;20433;-63
2023/09/11 12:11:52;;;;;;;3.90;1.40;;;32.60;1.00;;;;;;5091555;28;20487;-62
2023/09/11 12:14:20;;;;;;;1.27;1.10;;;32.50;1.00;;;;;;5088186;28;20418;-63
2023/09/11 12:16:47;;;;;;;1.90;1.10;;;32.30;1.00;;;;;;5091280;28;20841;-62
2023/09/11 12:19:17;;;;;;;1.90;1.00;;;32.40;1.00;;;;;;5109620;28;20546;-61
2023/09/11 12:21:45;;;;;;;1.80;0.90;;;32.50;1.00;;;;;;5113658;28;20431;-62
2023/09/11 12:24:12;;;;;;;1.80;1.20;;;32.30;1.00;;;;;;5113549;28;20477;-62
2023/09/11 12:26:39;;;;;;;1.90;1.10;;;32.40;1.00;;;;;;5112544;28;20408;-62
2023/09/11 12:29:08;;;;;;;2.60;1.10;;;32.50;1.00;;;;;;5115184;28;20495;-62
2023/09/11 12:31:35;;;;;;;1.60;0.90;;;32.60;1.00;;;;;;5113626;28;20446;-62
2023/09/11 12:34:02;;;;;;;1.45;1.00;;;32.50;1.00;;;;;;5114174;28;20514;-62
2023/09/11 12:36:30;;;;;;;1.50;1.00;;;32.40;1.00;;;;;;5114551;28;20428;-62
2023/09/11 12:38:58;;;;;;;1.30;1.00;;;32.40;1.00;;;;;;5110840;28;20436;-61
2023/09/11 12:41:26;;;;;;;1.87;1.00;;;32.60;1.00;;;;;;5111844;28;20797;-61
2023/09/11 12:43:54;;;;;;;1.70;1.10;;;32.60;1.00;;;;;;5112527;28;20428;-62
2023/09/11 12:46:22;;;;;;;3.90;1.05;;;32.50;1.00;;;;;;5114611;28;20423;-63
2023/09/11 12:48:51;;;;;;;2.20;1.00;;;32.40;1.00;;;;;;5109239;28;20728;-62
2023/09/11 12:51:19;;;;;;;1.40;1.00;;;32.10;1.00;;;;;;5113929;28;20412;-62
2023/09/11 12:53:47;;;;;;;2.10;1.20;;;32.10;1.00;;;;;;5111437;28;20532;-63
2023/09/11 12:56:20;;;;;;;4.65;1.20;;;32.20;1.00;;;;;;5114463;28;20511;-63
2023/09/11 12:58:47;;;;;;;2.15;1.00;;;32.30;1.00;;;;;;5111434;28;20470;-62
2023/09/11 13:01:14;;;;;;;2.07;1.00;;;32.40;1.00;;;;;;5111097;28;20426;-62